Bruneau, Idaho
Current Conditions -  °F | °C
As of 1:58 AM on Monday 20 Oct 2014 (Local Time) from KMUO Reporting Station
Clear Clear  
Wind Chill: 57°   Ceiling: Unl
Heat Index: 57°   Visibility: 10mi
Dew Point: 34°   Wind: 15mph
Humidity: 42%   Direction: 120°ESE
Pressure: 29.88"   Gusts: NA
Location:  42.88°N, 115.8°W
Report Text: KMUO 200758Z AUTO 12013KT 10SM CLR 14/01 A2988 RMK AO2 SLP102 T01410012
Loading
Personal Weather Stations






























Interactive Weather Map
Tropical Storm Tracking
New forecast layout! Learn more

10-Day Weather Forecast

Advertisements
Track Severe Weather on mobile